Terminal Aerodrome Forecast
Issued by NWS Tuscon, AZ

Home | Current Version | Previous Version | Text Only | Print | Product List | Glossary On
Versions: 1 2 3 4 5 6 7 8 9 10 11 12 13 14 15 16 17
014
FTUS45 KTWC 261730
TAFTUS
TAF
KTUS 261730Z 2618/2718 20012G20KT P6SM SKC
     FM262000 23020G28KT P6SM SKC
     FM270300 24008KT P6SM SKC
     FM270800 16005KT P6SM SKC=

USA.gov is the U.S. government's official web portal to all federal, state and local government web resources and services.